createdAt,value
2018-02-08T00:01:41.694Z,1.60
2018-02-08T00:04:09.174Z,1.70
2018-02-08T00:06:37.430Z,1.70
2018-02-08T00:09:04.906Z,1.70
2018-02-08T00:11:32.401Z,1.70
2018-02-08T00:14:01.663Z,1.70
2018-02-08T00:16:29.154Z,1.60
2018-02-08T00:18:56.639Z,1.70
2018-02-08T00:21:24.131Z,1.70
2018-02-08T00:23:52.383Z,1.70
2018-02-08T00:26:19.887Z,1.70
2018-02-08T00:28:48.129Z,1.70
2018-02-08T00:31:15.626Z,1.70
2018-02-08T00:33:43.107Z,1.70
2018-02-08T00:36:10.615Z,1.80
2018-02-08T00:38:38.094Z,1.80
2018-02-08T00:41:06.359Z,1.80
2018-02-08T00:43:33.835Z,1.70
2018-02-08T00:46:01.334Z,1.80
2018-02-08T00:48:28.807Z,1.90
2018-02-08T00:50:56.306Z,1.90
2018-02-08T00:53:23.783Z,1.80
2018-02-08T00:55:51.277Z,1.80
2018-02-08T00:58:19.514Z,1.80
2018-02-08T01:00:47.243Z,1.80
2018-02-08T01:03:14.759Z,1.80
2018-02-08T01:05:42.258Z,1.80
2018-02-08T01:08:09.734Z,1.80
2018-02-08T01:10:37.997Z,2.00
2018-02-08T01:13:05.478Z,1.90
2018-02-08T01:15:32.979Z,1.90
2018-02-08T01:18:00.459Z,1.90
2018-02-08T01:20:27.954Z,2.00
2018-02-08T01:22:55.431Z,2.00
2018-02-08T01:25:22.909Z,2.00
2018-02-08T01:27:50.412Z,2.00
2018-02-08T01:30:18.660Z,1.90
2018-02-08T01:32:46.161Z,1.90
2018-02-08T01:35:13.638Z,1.90
2018-02-08T01:37:41.909Z,1.90
2018-02-08T01:40:09.390Z,1.80
2018-02-08T01:42:36.891Z,1.90
2018-02-08T01:45:04.366Z,1.90
2018-02-08T01:47:31.871Z,1.90
2018-02-08T01:49:59.348Z,1.80
2018-02-08T01:52:26.846Z,1.80
2018-02-08T01:54:55.092Z,1.90
2018-02-08T01:57:22.591Z,1.90
2018-02-08T01:59:50.066Z,1.90
2018-02-08T02:02:17.567Z,1.90
2018-02-08T02:04:45.043Z,1.90
2018-02-08T02:07:12.540Z,1.90
2018-02-08T02:09:40.020Z,1.80
2018-02-08T02:12:07.519Z,1.80
2018-02-08T02:14:34.999Z,1.80
2018-02-08T02:17:03.263Z,1.70
2018-02-08T02:19:30.739Z,1.60
2018-02-08T02:21:58.240Z,1.70
2018-02-08T02:24:25.718Z,1.60
2018-02-08T02:26:53.215Z,1.70
2018-02-08T02:29:20.695Z,1.80
2018-02-08T02:31:48.195Z,1.80
2018-02-08T02:34:15.675Z,1.80
2018-02-08T02:36:43.943Z,1.70
2018-02-08T02:39:11.417Z,1.70
2018-02-08T02:41:38.916Z,1.70
2018-02-08T02:44:06.387Z,1.70
2018-02-08T02:46:33.891Z,1.70
2018-02-08T02:49:01.365Z,1.80
2018-02-08T02:51:28.878Z,1.70
2018-02-08T02:53:57.127Z,1.70
2018-02-08T02:56:24.622Z,1.60
2018-02-08T02:58:52.110Z,1.50
2018-02-08T03:01:20.393Z,1.60
2018-02-08T03:03:47.871Z,1.50
2018-02-08T03:06:16.135Z,1.50
2018-02-08T03:08:43.614Z,1.50
2018-02-08T03:11:11.117Z,1.50
2018-02-08T03:13:38.586Z,1.50
2018-02-08T03:16:06.086Z,1.50
2018-02-08T03:18:33.574Z,1.60
2018-02-08T03:21:01.071Z,1.50
2018-02-08T03:23:28.553Z,1.60
2018-02-08T03:25:56.820Z,1.50
2018-02-08T03:28:24.295Z,1.40
2018-02-08T03:30:51.771Z,1.40
2018-02-08T03:33:20.035Z,1.30
2018-02-08T03:35:47.505Z,1.30
2018-02-08T03:38:15.008Z,1.30
2018-02-08T03:40:43.247Z,1.30
2018-02-08T03:43:10.753Z,1.30
2018-02-08T03:45:39.007Z,1.30
2018-02-08T03:48:06.502Z,1.30
2018-02-08T03:50:33.982Z,1.20
2018-02-08T03:53:02.244Z,1.20
2018-02-08T03:55:29.719Z,1.20
2018-02-08T03:57:57.215Z,1.30
2018-02-08T04:00:25.462Z,1.30
2018-02-08T04:02:52.975Z,1.30
2018-02-08T04:05:21.219Z,1.20
2018-02-08T04:07:48.710Z,1.10
2018-02-08T04:10:16.187Z,1.10
2018-02-08T04:12:43.680Z,1.20
2018-02-08T04:15:11.928Z,1.10
2018-02-08T04:17:39.422Z,1.10
2018-02-08T04:20:07.663Z,0.90
2018-02-08T04:22:35.162Z,0.80
2018-02-08T04:25:02.634Z,0.90
2018-02-08T04:27:30.123Z,0.90
2018-02-08T04:29:58.366Z,0.90
2018-02-08T04:32:25.867Z,0.90
2018-02-08T04:34:53.359Z,0.90
2018-02-08T04:37:21.619Z,0.80
2018-02-08T04:40:00.951Z,0.70
2018-02-08T04:46:05.287Z,0.60
2018-02-08T04:48:32.787Z,0.60
2018-02-08T04:51:00.259Z,0.60
2018-02-08T04:53:27.767Z,0.60
2018-02-08T04:55:55.247Z,0.60
2018-02-08T04:58:23.503Z,0.60
2018-02-08T05:00:50.991Z,0.50
2018-02-08T05:03:18.542Z,0.60
2018-02-08T05:05:45.988Z,0.60
2018-02-08T05:08:13.487Z,0.50
2018-02-08T05:10:40.967Z,0.50
2018-02-08T05:13:08.458Z,0.50
2018-02-08T05:15:36.707Z,0.50
2018-02-08T05:18:04.198Z,0.50
2018-02-08T05:20:31.679Z,0.50
2018-02-08T05:22:59.948Z,0.50
2018-02-08T05:25:27.422Z,0.40
2018-02-08T05:27:54.921Z,0.50
2018-02-08T05:30:22.398Z,0.50
2018-02-08T05:32:49.895Z,0.60
2018-02-08T05:35:17.367Z,0.60
2018-02-08T05:37:44.866Z,0.70
2018-02-08T05:40:12.360Z,0.50
2018-02-08T05:42:40.631Z,0.50
2018-02-08T05:45:08.111Z,0.40
2018-02-08T05:47:36.379Z,0.60
2018-02-08T05:50:03.859Z,0.50
2018-02-08T05:52:31.351Z,0.50
2018-02-08T05:54:59.599Z,0.40
2018-02-08T05:57:27.094Z,0.40
2018-02-08T05:59:54.567Z,0.40
2018-02-08T06:02:22.827Z,0.60
2018-02-08T06:04:50.311Z,0.50
2018-02-08T06:07:17.810Z,0.60
2018-02-08T06:09:46.055Z,0.50
2018-02-08T06:12:13.555Z,0.50
2018-02-08T06:14:41.031Z,0.50
2018-02-08T06:17:09.306Z,0.40
2018-02-08T06:19:36.783Z,0.40
2018-02-08T06:22:05.027Z,0.40
2018-02-08T06:24:32.519Z,0.30
2018-02-08T06:26:59.998Z,0.40
2018-02-08T06:29:27.499Z,0.40
2018-02-08T06:31:55.003Z,0.40
2018-02-08T06:34:22.499Z,0.40
2018-02-08T06:36:49.978Z,0.30
2018-02-08T06:39:17.482Z,0.30
2018-02-08T06:41:44.962Z,0.40
2018-02-08T06:44:12.463Z,0.40
2018-02-08T06:46:39.972Z,0.40
2018-02-08T06:49:08.244Z,0.40
2018-02-08T06:51:35.719Z,0.40
2018-02-08T06:54:03.219Z,0.50
2018-02-08T06:56:30.779Z,0.30
2018-02-08T06:58:58.275Z,0.40
2018-02-08T07:01:25.758Z,0.30
2018-02-08T07:03:53.259Z,0.40
2018-02-08T07:06:20.750Z,0.50
2018-02-08T07:08:48.245Z,0.50
2018-02-08T07:11:15.722Z,0.60
2018-02-08T07:13:43.294Z,0.60
2018-02-08T07:16:11.507Z,0.80
2018-02-08T07:18:38.989Z,0.70
2018-02-08T07:21:06.483Z,0.80
2018-02-08T07:23:33.978Z,0.80
2018-02-08T07:26:01.451Z,0.90
2018-02-08T07:28:28.943Z,0.80
2018-02-08T07:30:56.447Z,0.70
2018-02-08T07:33:23.948Z,0.70
2018-02-08T07:35:52.191Z,0.70
2018-02-08T07:38:19.686Z,0.60
2018-02-08T07:40:47.166Z,0.70
2018-02-08T07:43:15.459Z,0.60
2018-02-08T07:45:42.935Z,0.60
2018-02-08T07:48:10.426Z,0.60
2018-02-08T07:50:37.926Z,0.70
2018-02-08T07:53:05.435Z,0.70
2018-02-08T07:55:33.698Z,0.70
2018-02-08T07:58:01.219Z,0.70
2018-02-08T08:00:28.695Z,0.80
2018-02-08T08:02:56.198Z,0.80
2018-02-08T08:05:23.667Z,0.80
2018-02-08T08:07:51.164Z,0.90
2018-02-08T08:10:18.639Z,0.90
2018-02-08T08:12:46.139Z,1.00
2018-02-08T08:15:13.617Z,1.00
2018-02-08T08:17:41.115Z,1.10
2018-02-08T08:20:08.594Z,1.20
2018-02-08T08:22:36.086Z,1.30
2018-02-08T08:25:03.575Z,1.40
2018-02-08T08:27:31.845Z,1.50
2018-02-08T08:29:59.323Z,1.50
2018-02-08T08:32:27.616Z,1.70
2018-02-08T08:34:55.877Z,1.70
2018-02-08T08:37:23.355Z,1.70
2018-02-08T08:39:50.855Z,1.80
2018-02-08T08:42:19.103Z,2.00
2018-02-08T08:44:46.599Z,2.00
2018-02-08T08:47:14.844Z,2.20
2018-02-08T08:49:42.335Z,2.20
2018-02-08T08:52:09.811Z,2.40
2018-02-08T08:54:37.315Z,2.50
2018-02-08T08:57:04.791Z,2.50
2018-02-08T08:59:32.290Z,2.60
2018-02-08T09:01:59.767Z,2.70
2018-02-08T09:04:27.267Z,2.80
2018-02-08T09:06:55.524Z,3.00
2018-02-08T09:09:23.019Z,3.00
2018-02-08T09:11:50.490Z,3.10
2018-02-08T09:14:18.002Z,3.20
2018-02-08T09:16:45.483Z,3.20
2018-02-08T09:19:12.988Z,3.40
2018-02-08T09:21:40.467Z,3.40
2018-02-08T09:24:07.998Z,3.40
2018-02-08T09:26:35.470Z,3.40
2018-02-08T09:29:02.972Z,3.40
2018-02-08T09:31:30.454Z,3.30
2018-02-08T09:33:57.952Z,3.30
2018-02-08T09:36:25.488Z,3.30
2018-02-08T09:38:52.959Z,3.40
2018-02-08T09:41:20.427Z,3.50
2018-02-08T09:43:47.927Z,3.50
2018-02-08T09:46:16.175Z,3.60
2018-02-08T09:48:43.679Z,3.50
2018-02-08T09:51:11.923Z,3.50
2018-02-08T09:53:39.423Z,3.50
2018-02-08T09:56:06.905Z,3.50
2018-02-08T09:58:35.166Z,3.60
2018-02-08T10:01:02.647Z,3.60
2018-02-08T10:03:30.138Z,3.60
2018-02-08T10:05:57.611Z,3.60
2018-02-08T10:08:25.875Z,3.70
2018-02-08T10:10:53.362Z,3.70
2018-02-08T10:13:21.626Z,4.00
2018-02-08T10:15:49.106Z,4.00
2018-02-08T10:18:16.607Z,4.10
2018-02-08T10:20:44.083Z,4.20
2018-02-08T10:23:11.610Z,4.30
2018-02-08T10:25:39.082Z,4.40
2018-02-08T10:28:06.562Z,4.50
2018-02-08T10:30:34.822Z,4.70
2018-02-08T10:33:02.296Z,4.60
2018-02-08T10:35:29.791Z,4.90
2018-02-08T10:37:58.031Z,5.00
2018-02-08T10:40:25.523Z,4.90
2018-02-08T10:42:53.006Z,5.00
2018-02-08T10:45:20.514Z,5.10
2018-02-08T10:47:48.016Z,5.10
2018-02-08T10:50:15.514Z,5.20
2018-02-08T10:52:42.990Z,5.30
2018-02-08T10:55:10.491Z,5.40
2018-02-08T10:57:38.002Z,5.50
2018-02-08T11:00:05.487Z,5.60
2018-02-08T11:02:32.963Z,5.50
2018-02-08T11:05:00.468Z,5.60
2018-02-08T11:07:27.946Z,5.70
2018-02-08T11:09:55.455Z,5.70
2018-02-08T11:12:22.934Z,5.70
2018-02-08T11:14:50.411Z,5.80
2018-02-08T11:17:17.902Z,5.90
2018-02-08T11:19:46.167Z,6.10
2018-02-08T11:22:13.666Z,6.00
2018-02-08T11:24:41.170Z,6.10
2018-02-08T11:27:08.667Z,6.10
2018-02-08T11:29:36.144Z,6.00
2018-02-08T11:32:03.643Z,5.90
2018-02-08T11:34:31.882Z,6.00
2018-02-08T11:36:59.383Z,5.90
2018-02-08T11:39:26.905Z,5.90
2018-02-08T11:41:55.148Z,5.90
2018-02-08T11:44:22.627Z,5.90
2018-02-08T11:46:50.907Z,5.80
2018-02-08T11:49:18.382Z,5.80
2018-02-08T11:51:46.618Z,5.70
2018-02-08T11:54:14.123Z,5.70
2018-02-08T11:56:41.604Z,5.70
2018-02-08T11:59:09.869Z,5.50
2018-02-08T12:01:37.370Z,5.40
2018-02-08T12:04:05.633Z,5.40
2018-02-08T12:06:33.116Z,5.30
2018-02-08T12:09:00.615Z,5.40
2018-02-08T12:11:28.091Z,5.50
2018-02-08T12:13:55.599Z,5.60
2018-02-08T12:16:23.073Z,5.70
2018-02-08T12:18:50.565Z,5.70
2018-02-08T12:21:19.003Z,5.70
2018-02-08T12:23:46.514Z,5.70
2018-02-08T12:26:14.012Z,5.70
2018-02-08T12:28:42.275Z,5.70
2018-02-08T12:31:09.762Z,5.60
2018-02-08T12:33:38.051Z,5.80
2018-02-08T12:36:06.306Z,6.00
2018-02-08T12:38:33.806Z,5.90
2018-02-08T12:41:01.295Z,5.90
2018-02-08T12:43:29.563Z,5.70
2018-02-08T12:45:57.043Z,5.70
2018-02-08T12:48:25.307Z,5.70
2018-02-08T12:50:52.787Z,5.70
2018-02-08T12:53:20.263Z,5.80
2018-02-08T12:55:47.757Z,5.80
2018-02-08T12:58:16.004Z,5.70
2018-02-08T13:00:43.508Z,5.70
2018-02-08T13:03:11.747Z,5.80
2018-02-08T13:05:39.250Z,5.70
2018-02-08T13:08:06.726Z,5.80
2018-02-08T13:10:34.990Z,5.90
2018-02-08T13:13:02.467Z,5.80
2018-02-08T13:15:29.963Z,5.80
2018-02-08T13:17:58.207Z,5.90
2018-02-08T13:20:25.707Z,5.80
2018-02-08T13:22:53.182Z,5.70
2018-02-08T13:25:21.448Z,5.60
2018-02-08T13:27:48.921Z,5.60
2018-02-08T13:30:16.419Z,5.60
2018-02-08T13:32:44.658Z,5.60
2018-02-08T13:35:12.163Z,5.60
2018-02-08T13:37:39.644Z,5.60
2018-02-08T13:43:16.507Z,5.50
2018-02-08T13:45:44.007Z,5.60
2018-02-08T13:48:17.151Z,5.50
2018-02-08T13:53:56.186Z,5.20
2018-02-08T13:59:51.849Z,4.90
2018-02-08T14:02:19.327Z,4.90
2018-02-08T14:04:46.819Z,5.00
2018-02-08T14:07:14.295Z,5.00
2018-02-08T14:09:42.554Z,4.90
2018-02-08T14:12:10.039Z,4.90
2018-02-08T14:14:37.539Z,4.90
2018-02-08T14:17:05.016Z,4.90
2018-02-08T14:19:32.510Z,4.80
2018-02-08T14:21:59.994Z,4.70
2018-02-08T14:24:27.578Z,4.60
2018-02-08T14:26:55.054Z,4.60
2018-02-08T14:29:22.548Z,4.60
2018-02-08T14:31:50.789Z,4.40
2018-02-08T14:34:18.286Z,4.40
2018-02-08T14:36:45.758Z,4.30
2018-02-08T14:39:13.251Z,4.30
2018-02-08T14:41:40.734Z,4.30
2018-02-08T14:44:08.238Z,4.30
2018-02-08T14:46:35.715Z,4.40
2018-02-08T14:49:03.196Z,4.40
2018-02-08T14:51:30.694Z,4.40
2018-02-08T14:53:58.930Z,4.30
2018-02-08T14:56:26.427Z,4.30
2018-02-08T14:58:53.903Z,4.30
2018-02-08T15:01:21.403Z,4.20
2018-02-08T15:03:48.879Z,4.10
2018-02-08T15:06:16.374Z,4.10
2018-02-08T15:08:43.851Z,4.10
2018-02-08T15:11:11.342Z,4.10
2018-02-08T15:13:38.818Z,4.00
2018-02-08T15:16:06.315Z,4.00
2018-02-08T15:18:34.559Z,4.00
2018-02-08T15:21:02.055Z,3.90
2018-02-08T15:23:29.535Z,3.90
2018-02-08T15:25:57.802Z,3.80
2018-02-08T15:28:25.279Z,3.70
2018-02-08T15:30:52.787Z,3.70
2018-02-08T15:33:20.263Z,3.60
2018-02-08T15:35:47.763Z,3.60
2018-02-08T15:38:15.250Z,3.70
2018-02-08T15:40:42.759Z,3.70
2018-02-08T15:43:10.230Z,3.60
2018-02-08T15:45:37.718Z,3.60
2018-02-08T15:48:05.197Z,3.40
2018-02-08T15:50:32.690Z,3.50
2018-02-08T15:53:00.167Z,3.30
2018-02-08T15:55:27.670Z,3.40
2018-02-08T15:57:55.144Z,3.30
2018-02-08T16:00:23.405Z,3.10
2018-02-08T16:02:50.886Z,3.10
2018-02-08T16:05:19.147Z,3.00
2018-02-08T16:07:46.623Z,2.90
2018-02-08T16:10:14.126Z,2.90
2018-02-08T16:12:42.374Z,2.90
2018-02-08T16:15:09.870Z,2.90
2018-02-08T16:17:38.119Z,2.90
2018-02-08T16:20:05.619Z,2.80
2018-02-08T16:22:33.094Z,2.70
2018-02-08T16:25:00.588Z,2.60
2018-02-08T16:27:28.067Z,2.60
2018-02-08T16:29:55.562Z,2.60
2018-02-08T16:32:23.039Z,2.60
2018-02-08T16:34:50.543Z,2.60
2018-02-08T16:37:18.019Z,2.60
2018-02-08T16:39:46.278Z,2.50
2018-02-08T16:42:13.754Z,2.40
2018-02-08T16:44:41.255Z,2.40
2018-02-08T16:47:09.503Z,2.40
2018-02-08T16:49:37.007Z,2.30
2018-02-08T16:52:05.246Z,2.30
2018-02-08T16:54:32.730Z,2.30
2018-02-08T16:57:00.232Z,2.30
2018-02-08T16:59:28.479Z,2.20
2018-02-08T17:01:56.003Z,2.10
2018-02-08T17:04:24.266Z,2.20
2018-02-08T17:06:51.763Z,2.20
2018-02-08T17:09:20.010Z,2.00
2018-02-08T17:11:47.509Z,2.00
2018-02-08T17:14:15.761Z,2.10
2018-02-08T17:16:43.259Z,2.10
2018-02-08T17:19:10.743Z,2.10
2018-02-08T17:21:39.264Z,2.00
2018-02-08T17:24:06.810Z,1.90
2018-02-08T17:26:35.100Z,1.90
2018-02-08T17:29:03.389Z,1.80
2018-02-08T17:31:31.697Z,1.80
2018-02-08T17:33:59.228Z,1.70
2018-02-08T17:36:26.851Z,1.80
2018-02-08T17:38:54.352Z,1.80
2018-02-08T17:41:21.857Z,1.80
2018-02-08T17:43:50.116Z,1.80
2018-02-08T17:46:17.662Z,1.70
2018-02-08T17:48:45.153Z,1.80
2018-02-08T17:51:12.687Z,1.80
2018-02-08T17:53:40.182Z,1.90
2018-02-08T17:56:07.693Z,2.00
2018-02-08T17:58:35.967Z,2.00
2018-02-08T18:01:04.267Z,1.70
2018-02-08T18:03:32.528Z,1.70
2018-02-08T18:06:00.030Z,1.60
2018-02-08T18:08:28.283Z,1.50
2018-02-08T18:10:55.798Z,1.50
2018-02-08T18:13:24.054Z,1.50
2018-02-08T18:15:51.577Z,1.50
2018-02-08T18:18:19.069Z,1.50
2018-02-08T18:20:46.578Z,1.40
2018-02-08T18:23:14.067Z,1.40
2018-02-08T18:25:41.586Z,1.40
2018-02-08T18:28:09.071Z,1.50
2018-02-08T18:30:36.587Z,1.60
2018-02-08T18:33:04.080Z,1.60
2018-02-08T18:35:31.599Z,1.60
2018-02-08T18:37:59.088Z,1.60
2018-02-08T18:40:26.602Z,1.60
2018-02-08T18:42:54.102Z,1.50
2018-02-08T18:45:21.638Z,1.30
2018-02-08T18:47:49.143Z,1.30
2018-02-08T18:50:16.726Z,1.40
2018-02-08T18:52:44.216Z,1.30
2018-02-08T18:55:12.488Z,1.30
2018-02-08T18:57:39.979Z,1.20
2018-02-08T19:00:07.487Z,1.30
2018-02-08T19:02:34.962Z,1.30
2018-02-08T19:05:02.443Z,1.30
2018-02-08T19:07:29.956Z,1.20
2018-02-08T19:09:58.213Z,1.30
2018-02-08T19:12:25.811Z,1.20
2018-02-08T19:14:54.258Z,1.40
2018-02-08T19:17:21.772Z,1.30
2018-02-08T19:19:50.028Z,1.20
2018-02-08T19:22:17.530Z,1.20
2018-02-08T19:24:45.780Z,1.20
2018-02-08T19:27:13.299Z,1.20
2018-02-08T19:29:41.558Z,1.20
2018-02-08T19:32:09.071Z,1.20
2018-02-08T19:34:36.544Z,1.30
2018-02-08T19:37:04.059Z,1.10
2018-02-08T19:39:31.571Z,1.10
2018-02-08T19:41:59.075Z,1.00
2018-02-08T19:44:26.567Z,0.90
2018-02-08T19:46:54.076Z,0.90
2018-02-08T19:49:22.314Z,0.80
2018-02-08T19:51:49.825Z,0.80
2018-02-08T19:54:18.075Z,0.80
2018-02-08T19:56:45.587Z,0.70
2018-02-08T19:59:13.862Z,0.80
2018-02-08T20:01:42.147Z,0.80
2018-02-08T20:04:09.626Z,0.70
2018-02-08T20:06:37.895Z,0.80
2018-02-08T20:09:05.371Z,0.70
2018-02-08T20:11:32.876Z,0.80
2018-02-08T20:14:00.351Z,0.80
2018-02-08T20:16:27.855Z,0.80
2018-02-08T20:18:56.114Z,0.80
2018-02-08T20:21:23.671Z,0.80
2018-02-08T20:23:51.151Z,0.80
2018-02-08T20:26:18.677Z,0.90
2018-02-08T20:28:46.160Z,0.80
2018-02-08T20:31:13.654Z,0.70
2018-02-08T20:33:41.140Z,0.50
2018-02-08T20:36:08.651Z,0.50
2018-02-08T20:38:36.251Z,0.50
2018-02-08T20:41:04.523Z,0.50
2018-02-08T20:43:32.009Z,0.50
2018-02-08T20:46:00.284Z,0.50
2018-02-08T20:48:27.767Z,0.40
2018-02-08T20:50:56.031Z,0.40
2018-02-08T20:53:23.514Z,0.30
2018-02-08T20:55:51.011Z,0.30
2018-02-08T20:58:18.490Z,0.30
2018-02-08T21:00:45.984Z,0.20
2018-02-08T21:03:13.488Z,0.20
2018-02-08T21:05:40.974Z,0.20
2018-02-08T21:08:09.246Z,0.20
2018-02-08T21:10:36.722Z,0.20
2018-02-08T21:13:04.219Z,0.20
2018-02-08T21:15:31.698Z,0.20
2018-02-08T21:17:59.198Z,0.30
2018-02-08T21:20:26.691Z,0.30
2018-02-08T21:22:54.195Z,0.30
2018-02-08T21:25:22.434Z,0.20
2018-02-08T21:27:49.944Z,0.20
2018-02-08T21:30:18.189Z,0.30
2018-02-08T21:32:45.699Z,0.30
2018-02-08T21:35:13.939Z,0.30
2018-02-08T21:37:41.438Z,0.20
2018-02-08T21:40:08.919Z,0.20
2018-02-08T21:42:36.415Z,0.40
2018-02-08T21:45:03.899Z,0.50
2018-02-08T21:47:31.399Z,0.60
2018-02-08T21:49:58.882Z,0.50
2018-02-08T21:52:26.383Z,0.50
2018-02-08T21:54:54.630Z,0.50
2018-02-08T21:57:22.165Z,0.50
2018-02-08T21:59:49.637Z,0.30
2018-02-08T22:02:17.130Z,0.30
2018-02-08T22:04:44.618Z,0.20
2018-02-08T22:07:12.123Z,0.20
2018-02-08T22:09:40.375Z,0.40
2018-02-08T22:12:07.875Z,0.40
2018-02-08T22:14:35.360Z,0.50
2018-02-08T22:17:02.879Z,0.50
2018-02-08T22:19:30.355Z,0.40
2018-02-08T22:21:57.830Z,0.20
2018-02-08T22:24:25.327Z,0.10
2018-02-08T22:26:53.575Z,-0.10
2018-02-08T22:29:21.076Z,-0.10
2018-02-08T22:31:48.558Z,-0.20
2018-02-08T22:34:16.830Z,-0.30
2018-02-08T22:36:44.317Z,-0.30
2018-02-08T22:39:12.587Z,-0.30
2018-02-08T22:41:40.076Z,-0.30
2018-02-08T22:44:08.346Z,-0.20
2018-02-08T22:46:35.840Z,-0.30
2018-02-08T22:49:03.343Z,-0.20
2018-02-08T22:51:30.827Z,-0.10
2018-02-08T22:53:58.339Z,-0.10
2018-02-08T22:56:26.590Z,0.00
2018-02-08T22:58:54.077Z,-0.10
2018-02-08T23:01:21.580Z,0.00
2018-02-08T23:03:49.831Z,-0.20
2018-02-08T23:06:17.334Z,-0.30
2018-02-08T23:08:45.578Z,-0.10
2018-02-08T23:11:13.083Z,-0.10
2018-02-08T23:13:41.335Z,-0.20
2018-02-08T23:16:08.838Z,-0.20
2018-02-08T23:18:37.091Z,-0.20
2018-02-08T23:21:04.594Z,-0.30
2018-02-08T23:23:32.843Z,-0.20
2018-02-08T23:26:00.347Z,-0.30
2018-02-08T23:28:27.827Z,-0.30
2018-02-08T23:30:56.103Z,0.00
2018-02-08T23:33:23.587Z,0.00
2018-02-08T23:35:51.095Z,0.00
2018-02-08T23:38:18.580Z,0.00
2018-02-08T23:40:46.071Z,0.00
2018-02-08T23:43:13.570Z,-0.20
2018-02-08T23:45:41.814Z,-0.30
2018-02-08T23:48:09.324Z,-0.40
2018-02-08T23:50:37.566Z,-0.30
2018-02-08T23:53:05.075Z,-0.40
2018-02-08T23:55:32.551Z,-0.40
2018-02-08T23:58:00.056Z,-0.40
